sensor_id;sensor_type;location;lat;lon;timestamp;P1;durP1;ratioP1;P2;durP2;ratioP2
11817;SDS011;5966;52.402;5.322;2022-10-16T00:00:58;3.97;;;1.40;;
11817;SDS011;5966;52.402;5.322;2022-10-16T00:03:31;2.20;;;1.03;;
11817;SDS011;5966;52.402;5.322;2022-10-16T00:05:59;2.60;;;1.37;;
11817;SDS011;5966;52.402;5.322;2022-10-16T00:08:28;2.23;;;1.40;;
11817;SDS011;5966;52.402;5.322;2022-10-16T00:10:59;3.00;;;1.30;;
11817;SDS011;5966;52.402;5.322;2022-10-16T00:13:29;5.47;;;1.50;;
11817;SDS011;5966;52.402;5.322;2022-10-16T00:15:58;4.17;;;1.27;;
11817;SDS011;5966;52.402;5.322;2022-10-16T00:18:30;3.60;;;1.23;;
11817;SDS011;5966;52.402;5.322;2022-10-16T00:21:11;3.77;;;1.60;;
11817;SDS011;5966;52.402;5.322;2022-10-16T00:24:11;6.37;;;1.30;;
11817;SDS011;5966;52.402;5.322;2022-10-16T00:26:56;3.90;;;1.70;;
11817;SDS011;5966;52.402;5.322;2022-10-16T00:29:25;3.20;;;1.53;;
11817;SDS011;5966;52.402;5.322;2022-10-16T00:31:53;3.13;;;1.50;;
11817;SDS011;5966;52.402;5.322;2022-10-16T00:34:21;3.27;;;1.43;;
11817;SDS011;5966;52.402;5.322;2022-10-16T00:36:49;2.53;;;1.50;;
11817;SDS011;5966;52.402;5.322;2022-10-16T00:39:19;3.53;;;1.60;;
11817;SDS011;5966;52.402;5.322;2022-10-16T00:42:09;2.30;;;1.33;;
11817;SDS011;5966;52.402;5.322;2022-10-16T00:44:52;3.57;;;1.47;;
11817;SDS011;5966;52.402;5.322;2022-10-16T00:47:24;2.73;;;1.30;;
11817;SDS011;5966;52.402;5.322;2022-10-16T00:49:56;3.30;;;1.20;;
11817;SDS011;5966;52.402;5.322;2022-10-16T00:52:31;2.60;;;1.20;;
11817;SDS011;5966;52.402;5.322;2022-10-16T00:55:37;3.23;;;1.30;;
11817;SDS011;5966;52.402;5.322;2022-10-16T00:58:13;1.63;;;1.30;;
11817;SDS011;5966;52.402;5.322;2022-10-16T01:00:42;3.27;;;1.57;;
11817;SDS011;5966;52.402;5.322;2022-10-16T01:03:26;1.40;;;1.00;;
11817;SDS011;5966;52.402;5.322;2022-10-16T01:06:17;2.83;;;1.20;;
11817;SDS011;5966;52.402;5.322;2022-10-16T01:11:48;2.43;;;1.30;;
11817;SDS011;5966;52.402;5.322;2022-10-16T01:14:30;1.90;;;1.20;;
11817;SDS011;5966;52.402;5.322;2022-10-16T01:17:15;2.77;;;1.10;;
11817;SDS011;5966;52.402;5.322;2022-10-16T01:20:00;2.00;;;1.37;;
11817;SDS011;5966;52.402;5.322;2022-10-16T01:23:06;3.37;;;1.03;;
11817;SDS011;5966;52.402;5.322;2022-10-16T01:25:50;2.50;;;1.30;;
11817;SDS011;5966;52.402;5.322;2022-10-16T01:32:01;4.27;;;1.20;;
11817;SDS011;5966;52.402;5.322;2022-10-16T01:34:37;5.00;;;1.30;;
11817;SDS011;5966;52.402;5.322;2022-10-16T01:37:11;1.33;;;0.90;;
11817;SDS011;5966;52.402;5.322;2022-10-16T01:39:44;1.97;;;0.97;;
11817;SDS011;5966;52.402;5.322;2022-10-16T01:42:15;2.30;;;1.10;;
11817;SDS011;5966;52.402;5.322;2022-10-16T01:44:58;1.73;;;0.80;;
11817;SDS011;5966;52.402;5.322;2022-10-16T01:47:31;1.83;;;1.00;;
11817;SDS011;5966;52.402;5.322;2022-10-16T01:49:59;1.20;;;1.00;;
11817;SDS011;5966;52.402;5.322;2022-10-16T01:52:37;2.10;;;0.80;;
11817;SDS011;5966;52.402;5.322;2022-10-16T01:55:08;1.50;;;1.00;;
11817;SDS011;5966;52.402;5.322;2022-10-16T01:57:42;2.20;;;1.00;;
11817;SDS011;5966;52.402;5.322;2022-10-16T02:00:14;0.80;;;0.80;;
11817;SDS011;5966;52.402;5.322;2022-10-16T02:02:50;1.43;;;0.90;;
11817;SDS011;5966;52.402;5.322;2022-10-16T02:05:22;2.40;;;1.03;;
11817;SDS011;5966;52.402;5.322;2022-10-16T02:07:56;3.03;;;1.30;;
11817;SDS011;5966;52.402;5.322;2022-10-16T02:10:28;2.93;;;1.40;;
11817;SDS011;5966;52.402;5.322;2022-10-16T02:12:59;3.53;;;1.13;;
11817;SDS011;5966;52.402;5.322;2022-10-16T02:15:32;1.80;;;1.20;;
11817;SDS011;5966;52.402;5.322;2022-10-16T02:18:02;1.90;;;1.03;;
11817;SDS011;5966;52.402;5.322;2022-10-16T02:20:32;2.00;;;1.17;;
11817;SDS011;5966;52.402;5.322;2022-10-16T02:23:04;1.63;;;1.10;;
11817;SDS011;5966;52.402;5.322;2022-10-16T02:25:37;3.07;;;1.37;;
11817;SDS011;5966;52.402;5.322;2022-10-16T02:28:08;3.77;;;1.27;;
11817;SDS011;5966;52.402;5.322;2022-10-16T02:30:42;1.50;;;1.20;;
11817;SDS011;5966;52.402;5.322;2022-10-16T02:33:14;1.97;;;1.17;;
11817;SDS011;5966;52.402;5.322;2022-10-16T02:35:44;1.27;;;1.10;;
11817;SDS011;5966;52.402;5.322;2022-10-16T02:38:15;3.23;;;1.27;;
11817;SDS011;5966;52.402;5.322;2022-10-16T02:40:44;2.17;;;1.13;;
11817;SDS011;5966;52.402;5.322;2022-10-16T02:43:13;1.53;;;1.30;;
11817;SDS011;5966;52.402;5.322;2022-10-16T02:45:41;3.07;;;1.50;;
11817;SDS011;5966;52.402;5.322;2022-10-16T02:48:09;3.53;;;1.20;;
11817;SDS011;5966;52.402;5.322;2022-10-16T02:50:39;2.57;;;1.23;;
11817;SDS011;5966;52.402;5.322;2022-10-16T02:53:06;4.37;;;1.27;;
11817;SDS011;5966;52.402;5.322;2022-10-16T02:55:34;4.97;;;1.50;;
11817;SDS011;5966;52.402;5.322;2022-10-16T02:58:02;3.37;;;1.30;;
11817;SDS011;5966;52.402;5.322;2022-10-16T03:00:30;2.50;;;1.23;;
11817;SDS011;5966;52.402;5.322;2022-10-16T03:02:58;2.30;;;1.70;;
11817;SDS011;5966;52.402;5.322;2022-10-16T03:05:26;3.67;;;1.70;;
11817;SDS011;5966;52.402;5.322;2022-10-16T03:07:55;2.77;;;1.30;;
11817;SDS011;5966;52.402;5.322;2022-10-16T03:10:26;1.57;;;1.30;;
11817;SDS011;5966;52.402;5.322;2022-10-16T03:12:54;2.87;;;1.30;;
11817;SDS011;5966;52.402;5.322;2022-10-16T03:15:23;1.57;;;1.47;;
11817;SDS011;5966;52.402;5.322;2022-10-16T03:17:52;3.10;;;1.50;;
11817;SDS011;5966;52.402;5.322;2022-10-16T03:20:19;3.20;;;1.60;;
11817;SDS011;5966;52.402;5.322;2022-10-16T03:22:47;2.27;;;1.33;;
11817;SDS011;5966;52.402;5.322;2022-10-16T03:25:17;3.97;;;1.70;;
11817;SDS011;5966;52.402;5.322;2022-10-16T03:27:45;2.23;;;1.70;;
11817;SDS011;5966;52.402;5.322;2022-10-16T03:30:13;3.80;;;1.80;;
11817;SDS011;5966;52.402;5.322;2022-10-16T03:32:41;2.80;;;1.80;;
11817;SDS011;5966;52.402;5.322;2022-10-16T03:35:10;3.40;;;1.70;;
11817;SDS011;5966;52.402;5.322;2022-10-16T03:37:38;5.07;;;1.60;;
11817;SDS011;5966;52.402;5.322;2022-10-16T03:40:06;4.07;;;1.80;;
11817;SDS011;5966;52.402;5.322;2022-10-16T03:42:36;3.43;;;1.40;;
11817;SDS011;5966;52.402;5.322;2022-10-16T03:45:05;2.13;;;1.60;;
11817;SDS011;5966;52.402;5.322;2022-10-16T03:47:33;1.60;;;1.37;;
11817;SDS011;5966;52.402;5.322;2022-10-16T03:50:01;3.87;;;1.53;;
11817;SDS011;5966;52.402;5.322;2022-10-16T03:52:29;3.60;;;1.37;;
11817;SDS011;5966;52.402;5.322;2022-10-16T03:54:58;3.67;;;1.50;;
11817;SDS011;5966;52.402;5.322;2022-10-16T03:57:26;5.20;;;1.47;;
11817;SDS011;5966;52.402;5.322;2022-10-16T03:59:58;4.60;;;1.40;;
11817;SDS011;5966;52.402;5.322;2022-10-16T04:02:26;2.77;;;1.40;;
11817;SDS011;5966;52.402;5.322;2022-10-16T04:04:54;2.40;;;1.00;;
11817;SDS011;5966;52.402;5.322;2022-10-16T04:07:22;3.67;;;1.30;;
11817;SDS011;5966;52.402;5.322;2022-10-16T04:09:51;2.00;;;1.20;;
11817;SDS011;5966;52.402;5.322;2022-10-16T04:12:19;4.03;;;1.10;;
11817;SDS011;5966;52.402;5.322;2022-10-16T04:14:47;2.53;;;1.50;;
11817;SDS011;5966;52.402;5.322;2022-10-16T04:17:17;2.93;;;1.27;;
11817;SDS011;5966;52.402;5.322;2022-10-16T04:19:45;2.67;;;1.50;;
11817;SDS011;5966;52.402;5.322;2022-10-16T04:22:13;2.13;;;1.20;;
11817;SDS011;5966;52.402;5.322;2022-10-16T04:24:41;3.20;;;1.43;;
11817;SDS011;5966;52.402;5.322;2022-10-16T04:27:09;3.10;;;1.60;;
11817;SDS011;5966;52.402;5.322;2022-10-16T04:29:38;2.03;;;1.20;;
11817;SDS011;5966;52.402;5.322;2022-10-16T04:32:07;1.17;;;1.13;;
11817;SDS011;5966;52.402;5.322;2022-10-16T04:34:38;2.57;;;1.40;;
11817;SDS011;5966;52.402;5.322;2022-10-16T04:37:07;1.73;;;1.10;;
11817;SDS011;5966;52.402;5.322;2022-10-16T04:39:35;1.77;;;1.40;;
11817;SDS011;5966;52.402;5.322;2022-10-16T04:42:02;2.60;;;1.50;;
11817;SDS011;5966;52.402;5.322;2022-10-16T04:44:30;3.43;;;1.30;;
11817;SDS011;5966;52.402;5.322;2022-10-16T04:46:58;1.97;;;1.23;;
11817;SDS011;5966;52.402;5.322;2022-10-16T04:49:26;2.60;;;1.23;;
11817;SDS011;5966;52.402;5.322;2022-10-16T04:51:55;2.53;;;1.37;;
11817;SDS011;5966;52.402;5.322;2022-10-16T04:54:23;3.97;;;1.50;;
11817;SDS011;5966;52.402;5.322;2022-10-16T04:56:51;2.30;;;1.40;;
11817;SDS011;5966;52.402;5.322;2022-10-16T04:59:19;1.77;;;1.40;;
11817;SDS011;5966;52.402;5.322;2022-10-16T05:01:49;2.97;;;1.37;;
11817;SDS011;5966;52.402;5.322;2022-10-16T05:04:17;8.50;;;1.30;;
11817;SDS011;5966;52.402;5.322;2022-10-16T05:06:45;2.77;;;1.63;;
11817;SDS011;5966;52.402;5.322;2022-10-16T05:09:16;4.40;;;1.20;;
11817;SDS011;5966;52.402;5.322;2022-10-16T05:11:44;3.40;;;1.70;;
11817;SDS011;5966;52.402;5.322;2022-10-16T05:14:11;3.37;;;1.50;;
11817;SDS011;5966;52.402;5.322;2022-10-16T05:16:39;1.97;;;1.20;;
11817;SDS011;5966;52.402;5.322;2022-10-16T05:19:07;1.30;;;1.10;;
11817;SDS011;5966;52.402;5.322;2022-10-16T05:21:53;2.90;;;1.23;;
11817;SDS011;5966;52.402;5.322;2022-10-16T05:24:22;2.67;;;1.13;;
11817;SDS011;5966;52.402;5.322;2022-10-16T05:26:50;1.53;;;1.20;;
11817;SDS011;5966;52.402;5.322;2022-10-16T05:29:18;3.53;;;1.27;;
11817;SDS011;5966;52.402;5.322;2022-10-16T05:31:46;1.70;;;1.27;;
11817;SDS011;5966;52.402;5.322;2022-10-16T05:34:19;1.37;;;1.27;;
11817;SDS011;5966;52.402;5.322;2022-10-16T05:36:47;2.33;;;1.30;;
11817;SDS011;5966;52.402;5.322;2022-10-16T05:39:15;0.97;;;0.97;;
11817;SDS011;5966;52.402;5.322;2022-10-16T05:41:44;2.40;;;1.57;;
11817;SDS011;5966;52.402;5.322;2022-10-16T05:44:17;2.40;;;1.23;;
11817;SDS011;5966;52.402;5.322;2022-10-16T05:50:44;2.10;;;1.20;;
11817;SDS011;5966;52.402;5.322;2022-10-16T05:53:12;2.87;;;1.80;;
11817;SDS011;5966;52.402;5.322;2022-10-16T05:55:40;2.80;;;1.80;;
11817;SDS011;5966;52.402;5.322;2022-10-16T05:58:09;1.37;;;1.27;;
11817;SDS011;5966;52.402;5.322;2022-10-16T06:00:39;5.27;;;1.40;;
11817;SDS011;5966;52.402;5.322;2022-10-16T06:03:07;2.10;;;1.37;;
11817;SDS011;5966;52.402;5.322;2022-10-16T06:05:35;2.67;;;1.43;;
11817;SDS011;5966;52.402;5.322;2022-10-16T06:08:05;4.37;;;1.70;;
11817;SDS011;5966;52.402;5.322;2022-10-16T06:10:33;1.40;;;1.20;;
11817;SDS011;5966;52.402;5.322;2022-10-16T06:13:01;4.50;;;1.73;;
11817;SDS011;5966;52.402;5.322;2022-10-16T06:15:31;2.63;;;1.43;;
11817;SDS011;5966;52.402;5.322;2022-10-16T06:17:59;2.63;;;1.03;;
11817;SDS011;5966;52.402;5.322;2022-10-16T06:20:27;1.30;;;1.10;;
11817;SDS011;5966;52.402;5.322;2022-10-16T06:22:55;3.70;;;1.10;;
11817;SDS011;5966;52.402;5.322;2022-10-16T06:25:22;1.70;;;1.00;;
11817;SDS011;5966;52.402;5.322;2022-10-16T06:27:50;2.90;;;1.10;;
11817;SDS011;5966;52.402;5.322;2022-10-16T06:30:18;3.93;;;1.23;;
11817;SDS011;5966;52.402;5.322;2022-10-16T06:32:47;3.97;;;1.40;;
11817;SDS011;5966;52.402;5.322;2022-10-16T06:35:16;2.10;;;0.87;;
11817;SDS011;5966;52.402;5.322;2022-10-16T06:37:45;1.67;;;0.80;;
11817;SDS011;5966;52.402;5.322;2022-10-16T06:40:16;2.07;;;0.70;;
11817;SDS011;5966;52.402;5.322;2022-10-16T06:42:43;1.60;;;1.00;;
11817;SDS011;5966;52.402;5.322;2022-10-16T06:45:11;1.97;;;0.83;;
11817;SDS011;5966;52.402;5.322;2022-10-16T06:47:42;1.40;;;1.10;;
11817;SDS011;5966;52.402;5.322;2022-10-16T06:50:11;2.50;;;1.30;;
11817;SDS011;5966;52.402;5.322;2022-10-16T06:52:41;2.87;;;1.30;;
11817;SDS011;5966;52.402;5.322;2022-10-16T06:55:08;1.93;;;1.20;;
11817;SDS011;5966;52.402;5.322;2022-10-16T06:57:36;2.23;;;1.23;;
11817;SDS011;5966;52.402;5.322;2022-10-16T07:00:12;3.97;;;1.40;;
11817;SDS011;5966;52.402;5.322;2022-10-16T07:02:40;3.50;;;1.50;;
11817;SDS011;5966;52.402;5.322;2022-10-16T07:05:10;2.23;;;1.50;;
11817;SDS011;5966;52.402;5.322;2022-10-16T07:07:39;3.40;;;1.50;;
11817;SDS011;5966;52.402;5.322;2022-10-16T07:10:21;1.57;;;1.47;;
11817;SDS011;5966;52.402;5.322;2022-10-16T07:12:50;3.47;;;1.87;;
11817;SDS011;5966;52.402;5.322;2022-10-16T07:15:19;3.77;;;1.80;;
11817;SDS011;5966;52.402;5.322;2022-10-16T07:17:47;2.30;;;1.70;;
11817;SDS011;5966;52.402;5.322;2022-10-16T07:20:16;1.83;;;1.30;;
11817;SDS011;5966;52.402;5.322;2022-10-16T07:22:45;2.87;;;1.50;;
11817;SDS011;5966;52.402;5.322;2022-10-16T07:25:13;2.10;;;1.63;;
11817;SDS011;5966;52.402;5.322;2022-10-16T07:27:40;3.87;;;1.50;;
11817;SDS011;5966;52.402;5.322;2022-10-16T07:30:09;2.13;;;1.40;;
11817;SDS011;5966;52.402;5.322;2022-10-16T07:32:38;2.53;;;1.43;;
11817;SDS011;5966;52.402;5.322;2022-10-16T07:35:20;4.00;;;1.50;;
11817;SDS011;5966;52.402;5.322;2022-10-16T07:38:34;2.63;;;1.40;;
11817;SDS011;5966;52.402;5.322;2022-10-16T07:41:03;4.87;;;1.30;;
11817;SDS011;5966;52.402;5.322;2022-10-16T07:43:45;1.90;;;1.13;;
11817;SDS011;5966;52.402;5.322;2022-10-16T07:46:16;4.07;;;1.50;;
11817;SDS011;5966;52.402;5.322;2022-10-16T07:52:16;3.30;;;1.43;;
11817;SDS011;5966;52.402;5.322;2022-10-16T07:54:44;3.87;;;1.00;;
11817;SDS011;5966;52.402;5.322;2022-10-16T07:57:13;4.00;;;1.20;;
11817;SDS011;5966;52.402;5.322;2022-10-16T07:59:50;4.33;;;1.57;;
11817;SDS011;5966;52.402;5.322;2022-10-16T08:02:51;4.13;;;1.33;;
11817;SDS011;5966;52.402;5.322;2022-10-16T08:05:47;3.90;;;1.30;;
11817;SDS011;5966;52.402;5.322;2022-10-16T08:08:25;3.23;;;1.20;;
11817;SDS011;5966;52.402;5.322;2022-10-16T08:10:58;2.43;;;1.23;;
11817;SDS011;5966;52.402;5.322;2022-10-16T08:13:41;2.60;;;1.03;;
11817;SDS011;5966;52.402;5.322;2022-10-16T08:16:51;5.07;;;1.17;;
11817;SDS011;5966;52.402;5.322;2022-10-16T08:19:25;3.20;;;1.13;;
11817;SDS011;5966;52.402;5.322;2022-10-16T08:21:59;4.93;;;1.03;;
11817;SDS011;5966;52.402;5.322;2022-10-16T08:24:38;3.03;;;1.50;;
11817;SDS011;5966;52.402;5.322;2022-10-16T08:27:16;3.20;;;1.27;;
11817;SDS011;5966;52.402;5.322;2022-10-16T08:30:03;2.77;;;0.97;;
11817;SDS011;5966;52.402;5.322;2022-10-16T08:32:35;2.97;;;1.40;;
11817;SDS011;5966;52.402;5.322;2022-10-16T08:35:03;4.47;;;1.20;;
11817;SDS011;5966;52.402;5.322;2022-10-16T08:37:34;3.87;;;1.23;;
11817;SDS011;5966;52.402;5.322;2022-10-16T08:40:07;3.33;;;1.17;;
11817;SDS011;5966;52.402;5.322;2022-10-16T08:45:43;3.13;;;1.27;;
11817;SDS011;5966;52.402;5.322;2022-10-16T08:49:27;5.10;;;1.40;;
11817;SDS011;5966;52.402;5.322;2022-10-16T08:52:12;5.30;;;1.60;;
11817;SDS011;5966;52.402;5.322;2022-10-16T08:54:42;4.47;;;1.50;;
11817;SDS011;5966;52.402;5.322;2022-10-16T08:57:16;5.13;;;1.47;;
11817;SDS011;5966;52.402;5.322;2022-10-16T08:59:52;5.90;;;1.90;;
11817;SDS011;5966;52.402;5.322;2022-10-16T09:02:37;2.97;;;1.37;;
11817;SDS011;5966;52.402;5.322;2022-10-16T09:05:24;6.73;;;2.10;;
11817;SDS011;5966;52.402;5.322;2022-10-16T09:08:09;3.60;;;1.37;;
11817;SDS011;5966;52.402;5.322;2022-10-16T09:10:47;4.37;;;1.47;;
11817;SDS011;5966;52.402;5.322;2022-10-16T09:13:28;4.67;;;1.73;;
11817;SDS011;5966;52.402;5.322;2022-10-16T09:16:10;7.63;;;2.17;;
11817;SDS011;5966;52.402;5.322;2022-10-16T09:19:05;6.70;;;1.60;;
11817;SDS011;5966;52.402;5.322;2022-10-16T09:21:48;3.47;;;1.50;;
11817;SDS011;5966;52.402;5.322;2022-10-16T09:24:23;6.80;;;1.67;;
11817;SDS011;5966;52.402;5.322;2022-10-16T09:27:01;3.50;;;1.40;;
11817;SDS011;5966;52.402;5.322;2022-10-16T09:29:30;6.17;;;1.57;;
11817;SDS011;5966;52.402;5.322;2022-10-16T09:32:05;6.60;;;1.83;;
11817;SDS011;5966;52.402;5.322;2022-10-16T09:34:42;4.90;;;1.70;;
11817;SDS011;5966;52.402;5.322;2022-10-16T09:37:21;3.33;;;1.40;;
11817;SDS011;5966;52.402;5.322;2022-10-16T09:39:53;3.67;;;1.20;;
11817;SDS011;5966;52.402;5.322;2022-10-16T09:42:41;9.60;;;2.00;;
11817;SDS011;5966;52.402;5.322;2022-10-16T09:45:21;7.37;;;1.80;;
11817;SDS011;5966;52.402;5.322;2022-10-16T09:47:51;5.97;;;1.60;;
11817;SDS011;5966;52.402;5.322;2022-10-16T09:50:23;4.83;;;1.60;;
11817;SDS011;5966;52.402;5.322;2022-10-16T09:53:05;7.93;;;2.10;;
11817;SDS011;5966;52.402;5.322;2022-10-16T09:55:47;5.47;;;2.10;;
11817;SDS011;5966;52.402;5.322;2022-10-16T09:58:17;9.20;;;2.00;;
11817;SDS011;5966;52.402;5.322;2022-10-16T10:00:52;7.30;;;1.87;;
11817;SDS011;5966;52.402;5.322;2022-10-16T10:03:30;3.67;;;1.50;;
11817;SDS011;5966;52.402;5.322;2022-10-16T10:06:15;4.70;;;1.93;;
11817;SDS011;5966;52.402;5.322;2022-10-16T10:09:04;5.20;;;1.70;;
11817;SDS011;5966;52.402;5.322;2022-10-16T10:11:46;7.83;;;1.57;;
11817;SDS011;5966;52.402;5.322;2022-10-16T10:14:27;5.57;;;2.07;;
11817;SDS011;5966;52.402;5.322;2022-10-16T10:17:25;10.23;;;1.80;;
11817;SDS011;5966;52.402;5.322;2022-10-16T10:19:57;9.33;;;2.10;;
11817;SDS011;5966;52.402;5.322;2022-10-16T10:22:39;8.70;;;2.40;;
11817;SDS011;5966;52.402;5.322;2022-10-16T10:25:15;5.53;;;2.00;;
11817;SDS011;5966;52.402;5.322;2022-10-16T10:28:14;6.33;;;1.67;;
11817;SDS011;5966;52.402;5.322;2022-10-16T10:30:56;8.60;;;2.13;;
11817;SDS011;5966;52.402;5.322;2022-10-16T10:33:38;5.07;;;1.53;;
11817;SDS011;5966;52.402;5.322;2022-10-16T10:36:17;4.17;;;1.67;;
11817;SDS011;5966;52.402;5.322;2022-10-16T10:38:59;7.53;;;1.70;;
11817;SDS011;5966;52.402;5.322;2022-10-16T10:41:40;7.80;;;2.07;;
11817;SDS011;5966;52.402;5.322;2022-10-16T10:44:35;6.93;;;2.13;;
11817;SDS011;5966;52.402;5.322;2022-10-16T10:47:20;7.90;;;1.90;;
11817;SDS011;5966;52.402;5.322;2022-10-16T10:50:01;4.47;;;1.53;;
11817;SDS011;5966;52.402;5.322;2022-10-16T10:52:38;7.60;;;1.93;;
11817;SDS011;5966;52.402;5.322;2022-10-16T10:55:20;6.30;;;1.80;;
11817;SDS011;5966;52.402;5.322;2022-10-16T10:58:06;5.97;;;1.63;;
11817;SDS011;5966;52.402;5.322;2022-10-16T11:00:48;10.13;;;2.00;;
11817;SDS011;5966;52.402;5.322;2022-10-16T11:03:32;6.03;;;1.63;;
11817;SDS011;5966;52.402;5.322;2022-10-16T11:06:16;7.33;;;2.20;;
11817;SDS011;5966;52.402;5.322;2022-10-16T11:08:51;6.87;;;1.37;;
11817;SDS011;5966;52.402;5.322;2022-10-16T11:11:29;6.83;;;2.10;;
11817;SDS011;5966;52.402;5.322;2022-10-16T11:14:04;8.80;;;2.20;;
11817;SDS011;5966;52.402;5.322;2022-10-16T11:16:42;5.23;;;1.80;;
11817;SDS011;5966;52.402;5.322;2022-10-16T11:19:31;6.13;;;1.80;;
11817;SDS011;5966;52.402;5.322;2022-10-16T11:22:41;10.40;;;2.23;;
11817;SDS011;5966;52.402;5.322;2022-10-16T11:25:17;4.77;;;1.27;;
11817;SDS011;5966;52.402;5.322;2022-10-16T11:27:49;5.40;;;1.60;;
11817;SDS011;5966;52.402;5.322;2022-10-16T11:30:24;6.13;;;1.67;;
11817;SDS011;5966;52.402;5.322;2022-10-16T11:33:08;5.53;;;1.97;;
11817;SDS011;5966;52.402;5.322;2022-10-16T11:35:51;9.10;;;1.90;;
11817;SDS011;5966;52.402;5.322;2022-10-16T11:38:32;8.07;;;1.90;;
11817;SDS011;5966;52.402;5.322;2022-10-16T11:41:39;5.40;;;1.70;;
11817;SDS011;5966;52.402;5.322;2022-10-16T11:44:18;4.10;;;1.30;;
11817;SDS011;5966;52.402;5.322;2022-10-16T11:46:57;4.53;;;1.40;;
11817;SDS011;5966;52.402;5.322;2022-10-16T11:50:06;5.87;;;1.90;;
11817;SDS011;5966;52.402;5.322;2022-10-16T11:53:04;6.03;;;2.03;;
11817;SDS011;5966;52.402;5.322;2022-10-16T11:55:52;6.17;;;1.90;;
11817;SDS011;5966;52.402;5.322;2022-10-16T11:58:22;6.70;;;1.80;;
11817;SDS011;5966;52.402;5.322;2022-10-16T12:01:04;8.07;;;2.10;;
11817;SDS011;5966;52.402;5.322;2022-10-16T12:04:01;7.67;;;2.70;;
11817;SDS011;5966;52.402;5.322;2022-10-16T12:07:26;6.97;;;1.83;;
11817;SDS011;5966;52.402;5.322;2022-10-16T12:10:19;6.37;;;1.60;;
11817;SDS011;5966;52.402;5.322;2022-10-16T12:16:37;7.90;;;1.70;;
11817;SDS011;5966;52.402;5.322;2022-10-16T12:19:12;6.00;;;1.70;;
11817;SDS011;5966;52.402;5.322;2022-10-16T12:21:43;6.83;;;1.80;;
11817;SDS011;5966;52.402;5.322;2022-10-16T12:24:34;7.73;;;2.03;;
11817;SDS011;5966;52.402;5.322;2022-10-16T12:27:20;7.27;;;1.60;;
11817;SDS011;5966;52.402;5.322;2022-10-16T12:29:56;6.30;;;1.60;;
11817;SDS011;5966;52.402;5.322;2022-10-16T12:32:30;6.17;;;1.67;;
11817;SDS011;5966;52.402;5.322;2022-10-16T12:35:17;5.53;;;1.60;;
11817;SDS011;5966;52.402;5.322;2022-10-16T12:37:47;6.20;;;1.70;;
11817;SDS011;5966;52.402;5.322;2022-10-16T12:46:05;4.87;;;1.23;;
11817;SDS011;5966;52.402;5.322;2022-10-16T12:48:51;3.50;;;1.17;;
11817;SDS011;5966;52.402;5.322;2022-10-16T12:51:36;5.87;;;1.13;;
11817;SDS011;5966;52.402;5.322;2022-10-16T12:54:12;6.67;;;1.60;;
11817;SDS011;5966;52.402;5.322;2022-10-16T12:56:45;7.33;;;1.50;;
11817;SDS011;5966;52.402;5.322;2022-10-16T12:59:42;5.73;;;1.70;;
11817;SDS011;5966;52.402;5.322;2022-10-16T13:05:57;5.30;;;1.70;;
11817;SDS011;5966;52.402;5.322;2022-10-16T13:09:09;7.03;;;1.33;;
11817;SDS011;5966;52.402;5.322;2022-10-16T13:13:04;5.10;;;1.53;;
11817;SDS011;5966;52.402;5.322;2022-10-16T13:16:17;6.73;;;1.50;;
11817;SDS011;5966;52.402;5.322;2022-10-16T13:18:58;3.93;;;1.60;;
11817;SDS011;5966;52.402;5.322;2022-10-16T13:21:43;5.70;;;1.57;;
11817;SDS011;5966;52.402;5.322;2022-10-16T13:24:23;4.60;;;1.47;;
11817;SDS011;5966;52.402;5.322;2022-10-16T13:27:03;4.70;;;1.37;;
11817;SDS011;5966;52.402;5.322;2022-10-16T13:29:40;5.67;;;1.43;;
11817;SDS011;5966;52.402;5.322;2022-10-16T13:32:09;6.13;;;2.00;;
11817;SDS011;5966;52.402;5.322;2022-10-16T13:35:02;4.17;;;1.40;;
11817;SDS011;5966;52.402;5.322;2022-10-16T13:37:45;6.57;;;1.70;;
11817;SDS011;5966;52.402;5.322;2022-10-16T13:40:33;6.90;;;1.40;;
11817;SDS011;5966;52.402;5.322;2022-10-16T13:43:01;6.80;;;1.40;;
11817;SDS011;5966;52.402;5.322;2022-10-16T13:45:29;3.20;;;1.20;;
11817;SDS011;5966;52.402;5.322;2022-10-16T13:48:03;3.60;;;1.30;;
11817;SDS011;5966;52.402;5.322;2022-10-16T13:50:48;4.60;;;1.80;;
11817;SDS011;5966;52.402;5.322;2022-10-16T13:53:41;4.27;;;1.50;;
11817;SDS011;5966;52.402;5.322;2022-10-16T13:56:12;6.70;;;1.90;;
11817;SDS011;5966;52.402;5.322;2022-10-16T13:58:44;5.00;;;1.67;;
11817;SDS011;5966;52.402;5.322;2022-10-16T14:01:16;7.93;;;1.63;;
11817;SDS011;5966;52.402;5.322;2022-10-16T14:03:47;6.27;;;1.73;;
11817;SDS011;5966;52.402;5.322;2022-10-16T14:06:20;4.90;;;2.03;;
11817;SDS011;5966;52.402;5.322;2022-10-16T14:08:57;5.57;;;2.10;;
11817;SDS011;5966;52.402;5.322;2022-10-16T14:11:27;5.13;;;1.73;;
11817;SDS011;5966;52.402;5.322;2022-10-16T14:13:55;5.67;;;1.40;;
11817;SDS011;5966;52.402;5.322;2022-10-16T14:16:27;8.63;;;2.17;;
11817;SDS011;5966;52.402;5.322;2022-10-16T14:18:58;6.23;;;1.43;;
11817;SDS011;5966;52.402;5.322;2022-10-16T14:21:30;4.87;;;2.03;;
11817;SDS011;5966;52.402;5.322;2022-10-16T14:24:10;7.03;;;2.23;;
11817;SDS011;5966;52.402;5.322;2022-10-16T14:26:41;5.53;;;1.43;;
11817;SDS011;5966;52.402;5.322;2022-10-16T14:29:17;5.40;;;1.87;;
11817;SDS011;5966;52.402;5.322;2022-10-16T14:31:53;4.30;;;1.50;;
11817;SDS011;5966;52.402;5.322;2022-10-16T14:34:24;8.50;;;2.10;;
11817;SDS011;5966;52.402;5.322;2022-10-16T14:36:55;8.57;;;4.67;;
11817;SDS011;5966;52.402;5.322;2022-10-16T14:39:23;3.63;;;1.90;;
11817;SDS011;5966;52.402;5.322;2022-10-16T14:41:54;6.57;;;2.10;;
11817;SDS011;5966;52.402;5.322;2022-10-16T14:44:27;4.97;;;1.53;;
11817;SDS011;5966;52.402;5.322;2022-10-16T14:46:57;7.07;;;1.63;;
11817;SDS011;5966;52.402;5.322;2022-10-16T14:49:25;4.83;;;1.70;;
11817;SDS011;5966;52.402;5.322;2022-10-16T14:51:55;6.43;;;1.97;;
11817;SDS011;5966;52.402;5.322;2022-10-16T14:54:25;7.17;;;1.83;;
11817;SDS011;5966;52.402;5.322;2022-10-16T14:57:00;5.97;;;1.83;;
11817;SDS011;5966;52.402;5.322;2022-10-16T14:59:31;6.07;;;2.00;;
11817;SDS011;5966;52.402;5.322;2022-10-16T15:02:02;6.20;;;1.77;;
11817;SDS011;5966;52.402;5.322;2022-10-16T15:04:46;5.73;;;1.67;;
11817;SDS011;5966;52.402;5.322;2022-10-16T15:07:21;4.67;;;1.43;;
11817;SDS011;5966;52.402;5.322;2022-10-16T15:09:49;3.70;;;1.37;;
11817;SDS011;5966;52.402;5.322;2022-10-16T15:12:18;4.13;;;1.60;;
11817;SDS011;5966;52.402;5.322;2022-10-16T15:14:47;7.10;;;2.03;;
11817;SDS011;5966;52.402;5.322;2022-10-16T15:17:16;6.80;;;1.70;;
11817;SDS011;5966;52.402;5.322;2022-10-16T15:20:12;5.23;;;2.00;;
11817;SDS011;5966;52.402;5.322;2022-10-16T15:22:55;5.33;;;1.57;;
11817;SDS011;5966;52.402;5.322;2022-10-16T15:25:38;8.13;;;2.00;;
11817;SDS011;5966;52.402;5.322;2022-10-16T15:28:11;5.80;;;1.53;;
11817;SDS011;5966;52.402;5.322;2022-10-16T15:30:40;5.30;;;1.80;;
11817;SDS011;5966;52.402;5.322;2022-10-16T15:33:16;6.80;;;1.90;;
11817;SDS011;5966;52.402;5.322;2022-10-16T15:35:49;4.83;;;1.77;;
11817;SDS011;5966;52.402;5.322;2022-10-16T15:38:22;6.87;;;2.03;;
11817;SDS011;5966;52.402;5.322;2022-10-16T15:40:54;4.50;;;1.47;;
11817;SDS011;5966;52.402;5.322;2022-10-16T15:43:23;3.73;;;1.77;;
11817;SDS011;5966;52.402;5.322;2022-10-16T15:45:58;7.40;;;2.23;;
11817;SDS011;5966;52.402;5.322;2022-10-16T15:48:44;6.13;;;2.00;;
11817;SDS011;5966;52.402;5.322;2022-10-16T15:51:26;7.47;;;1.93;;
11817;SDS011;5966;52.402;5.322;2022-10-16T15:54:12;8.03;;;1.90;;
11817;SDS011;5966;52.402;5.322;2022-10-16T15:56:40;6.70;;;2.30;;
11817;SDS011;5966;52.402;5.322;2022-10-16T15:59:14;5.60;;;2.37;;
11817;SDS011;5966;52.402;5.322;2022-10-16T16:01:45;10.03;;;2.77;;
11817;SDS011;5966;52.402;5.322;2022-10-16T16:04:13;4.47;;;1.73;;
11817;SDS011;5966;52.402;5.322;2022-10-16T16:07:02;4.20;;;1.87;;
11817;SDS011;5966;52.402;5.322;2022-10-16T16:09:39;4.50;;;1.53;;
11817;SDS011;5966;52.402;5.322;2022-10-16T16:12:09;6.53;;;2.53;;
11817;SDS011;5966;52.402;5.322;2022-10-16T16:15:00;5.03;;;2.30;;
11817;SDS011;5966;52.402;5.322;2022-10-16T16:17:36;7.00;;;2.80;;
11817;SDS011;5966;52.402;5.322;2022-10-16T16:20:18;6.47;;;2.40;;
11817;SDS011;5966;52.402;5.322;2022-10-16T16:22:53;5.97;;;2.60;;